Time;durP1;ratioP1;P1;durP2;ratioP2;P2;SDS_P1;SDS_P2;PMS_P1;PMS_P2;Temp;Humidity;BMP_temperature;BMP_pressure;BME280_temperature;BME280_humidity;BME280_pressure;Samples;Min_cycle;Max_cycle;Signal;HPM_P1;HPM_P2
2022/11/04 00:01:57;;;;;;;8.65;3.97;;;;;;;;;;5021514;28;20058;-83
2022/11/04 00:04:25;;;;;;;11.73;3.63;;;;;;;;;;5021751;28;20046;-83
2022/11/04 00:06:53;;;;;;;6.40;3.28;;;;;;;;;;5021091;28;20073;-83
2022/11/04 00:09:22;;;;;;;6.82;3.40;;;;;;;;;;5038930;28;20072;-83
2022/11/04 00:14:35;;;;;;;7.60;3.47;;;;;;;;;;5038741;28;20056;-83
2022/11/04 00:17:18;;;;;;;6.47;3.70;;;;;;;;;;5021721;28;20408;-83
2022/11/04 00:28:51;;;;;;;8.57;4.28;;;;;;;;;;5040204;28;20049;-82
2022/11/04 00:33:24;;;;;;;9.57;5.43;;;;;;;;;;5032956;28;20045;-83
2022/11/04 00:33:45;;;;;;;9.32;5.05;;;;;;;;;;5042997;28;20514;-84
2022/11/04 00:36:12;;;;;;;8.57;4.28;;;;;;;;;;5024999;28;20052;-83
2022/11/04 00:38:40;;;;;;;8.13;3.53;;;;;;;;;;5037345;28;20496;-83
2022/11/04 00:41:24;;;;;;;6.93;3.90;;;;;;;;;;5018160;28;20123;-83
2022/11/04 00:43:52;;;;;;;9.43;3.67;;;;;;;;;;5022736;28;20046;-83
2022/11/04 00:46:19;;;;;;;10.93;4.07;;;;;;;;;;5038489;28;20055;-82
2022/11/04 00:48:47;;;;;;;7.63;4.80;;;;;;;;;;5019332;28;20562;-82
2022/11/04 00:51:14;;;;;;;6.65;4.65;;;;;;;;;;5038187;28;20064;-82
2022/11/04 00:53:41;;;;;;;9.18;5.35;;;;;;;;;;5020679;28;20110;-83
2022/11/04 00:56:09;;;;;;;8.00;5.13;;;;;;;;;;5019205;28;20088;-83
2022/11/04 00:58:36;;;;;;;11.35;5.00;;;;;;;;;;5019167;28;20057;-83
2022/11/04 01:01:08;;;;;;;8.05;4.55;;;;;;;;;;5018947;28;20053;-83
2022/11/04 01:03:35;;;;;;;10.40;5.85;;;;;;;;;;5020042;28;20175;-83
2022/11/04 01:06:02;;;;;;;14.30;5.63;;;;;;;;;;5022225;28;20091;-84
2022/11/04 01:08:30;;;;;;;8.98;5.45;;;;;;;;;;5016904;28;20100;-85
2022/11/04 01:11:00;;;;;;;7.25;4.97;;;;;;;;;;5019750;28;20132;-85
2022/11/04 01:13:27;;;;;;;8.63;5.30;;;;;;;;;;5002645;28;20050;-84
2022/11/04 01:15:57;;;;;;;11.68;5.50;;;;;;;;;;5001345;28;20069;-83
2022/11/04 01:18:24;;;;;;;11.20;6.20;;;;;;;;;;5019049;28;20053;-85
2022/11/04 01:20:51;;;;;;;14.35;5.60;;;;;;;;;;5001613;28;20050;-85
2022/11/04 01:23:19;;;;;;;10.38;5.95;;;;;;;;;;5017336;28;20053;-84
2022/11/04 01:25:46;;;;;;;9.50;5.45;;;;;;;;;;5000224;28;20053;-82
2022/11/04 01:28:13;;;;;;;11.52;6.28;;;;;;;;;;5017111;28;20172;-83
2022/11/04 01:30:41;;;;;;;12.10;6.18;;;;;;;;;;4998738;28;20053;-83
2022/11/04 01:33:08;;;;;;;7.93;5.75;;;;;;;;;;5015983;28;20042;-84
2022/11/04 01:35:36;;;;;;;8.32;5.53;;;;;;;;;;5015910;28;20104;-83
2022/11/04 01:38:03;;;;;;;8.00;6.18;;;;;;;;;;4999238;28;20133;-83
2022/11/04 01:40:35;;;;;;;8.82;5.82;;;;;;;;;;4999901;28;20060;-83
2022/11/04 01:43:02;;;;;;;9.70;6.53;;;;;;;;;;5016899;28;20061;-84
2022/11/04 01:45:29;;;;;;;10.82;5.95;;;;;;;;;;5017010;28;20520;-82
2022/11/04 01:48:00;;;;;;;10.95;6.63;;;;;;;;;;4999755;28;20056;-83
2022/11/04 01:50:29;;;;;;;11.65;6.53;;;;;;;;;;4999616;28;20054;-83
2022/11/04 01:53:17;;;;;;;10.02;5.85;;;;;;;;;;4999341;28;20046;-84
2022/11/04 01:55:47;;;;;;;8.23;6.00;;;;;;;;;;4999188;28;20050;-84
2022/11/04 01:58:15;;;;;;;7.05;5.82;;;;;;;;;;5016655;28;20526;-83
2022/11/04 02:00:43;;;;;;;9.35;5.80;;;;;;;;;;4999491;28;20050;-83
2022/11/04 02:03:18;;;;;;;8.05;5.82;;;;;;;;;;5017197;28;20409;-83
2022/11/04 02:05:45;;;;;;;7.63;5.47;;;;;;;;;;4999337;28;20076;-84
2022/11/04 02:08:14;;;;;;;7.68;5.22;;;;;;;;;;4999021;28;20050;-83
2022/11/04 02:10:44;;;;;;;7.10;5.13;;;;;;;;;;5017395;28;20492;-84
2022/11/04 02:13:11;;;;;;;6.70;5.25;;;;;;;;;;4999160;28;20053;-83
2022/11/04 02:16:00;;;;;;;7.25;5.28;;;;;;;;;;4998920;28;20169;-84
2022/11/04 02:18:48;;;;;;;6.55;4.82;;;;;;;;;;4998605;28;20054;-84
2022/11/04 02:21:16;;;;;;;5.15;4.72;;;;;;;;;;4998919;28;20058;-83
2022/11/04 02:24:01;;;;;;;7.50;5.43;;;;;;;;;;5016518;28;20046;-85
2022/11/04 02:26:41;;;;;;;5.80;4.65;;;;;;;;;;4998177;28;20056;-83
2022/11/04 02:29:14;;;;;;;4.78;4.15;;;;;;;;;;4998471;28;20046;-84
2022/11/04 02:31:46;;;;;;;4.60;4.18;;;;;;;;;;5016066;28;20049;-84
2022/11/04 02:34:21;;;;;;;4.72;4.20;;;;;;;;;;4998437;28;20488;-84
2022/11/04 02:37:02;;;;;;;4.97;3.90;;;;;;;;;;4998177;28;20046;-84
2022/11/04 02:39:39;;;;;;;3.88;3.55;;;;;;;;;;4998273;28;20050;-84
2022/11/04 02:42:09;;;;;;;3.60;3.30;;;;;;;;;;4998454;28;20054;-83
2022/11/04 02:44:39;;;;;;;5.28;3.42;;;;;;;;;;4997997;28;20053;-83
2022/11/04 02:47:09;;;;;;;4.20;3.42;;;;;;;;;;4998255;28;20054;-83
2022/11/04 02:49:45;;;;;;;4.05;3.60;;;;;;;;;;4998164;28;20054;-83
2022/11/04 02:52:16;;;;;;;4.00;3.70;;;;;;;;;;4998100;28;20050;-83
2022/11/04 02:54:48;;;;;;;3.30;3.10;;;;;;;;;;4998541;28;20046;-83
2022/11/04 02:57:19;;;;;;;3.00;2.78;;;;;;;;;;4997905;28;20497;-85
2022/11/04 02:59:48;;;;;;;3.33;3.13;;;;;;;;;;4998235;28;20058;-84
2022/11/04 03:02:18;;;;;;;4.10;3.72;;;;;;;;;;5015635;28;20145;-84
2022/11/04 03:04:47;;;;;;;3.45;2.92;;;;;;;;;;5016516;28;20058;-84
2022/11/04 03:07:17;;;;;;;3.13;2.70;;;;;;;;;;5015305;28;20136;-84
2022/11/04 03:09:57;;;;;;;3.20;3.00;;;;;;;;;;4997439;28;20060;-83
2022/11/04 03:12:27;;;;;;;2.67;2.47;;;;;;;;;;4997281;28;20050;-82
2022/11/04 03:14:58;;;;;;;2.35;2.22;;;;;;;;;;4996907;28;20050;-83
2022/11/04 03:17:30;;;;;;;2.92;2.42;;;;;;;;;;4997243;28;20056;-82
2022/11/04 03:19:59;;;;;;;2.83;2.63;;;;;;;;;;4997083;28;20060;-83
2022/11/04 03:22:29;;;;;;;2.15;2.05;;;;;;;;;;4997617;28;20055;-82
2022/11/04 03:24:56;;;;;;;2.38;2.25;;;;;;;;;;4996726;28;20053;-82
2022/11/04 03:27:33;;;;;;;4.80;2.13;;;;;;;;;;5013507;28;20061;-83
2022/11/04 03:30:03;;;;;;;2.28;2.08;;;;;;;;;;5014345;28;20045;-83
2022/11/04 03:32:46;;;;;;;5.75;2.13;;;;;;;;;;5014333;28;20062;-83
2022/11/04 03:35:14;;;;;;;3.55;2.33;;;;;;;;;;4996807;28;20045;-84
2022/11/04 03:37:42;;;;;;;2.22;1.85;;;;;;;;;;4996660;28;20057;-84
2022/11/04 03:40:10;;;;;;;2.22;2.03;;;;;;;;;;4997131;28;20046;-82
2022/11/04 03:42:41;;;;;;;2.17;1.98;;;;;;;;;;5014741;28;20424;-84
2022/11/04 03:45:09;;;;;;;2.33;2.10;;;;;;;;;;5015004;28;20056;-84
2022/11/04 03:47:37;;;;;;;5.40;2.47;;;;;;;;;;5015523;28;20080;-83
2022/11/04 03:50:12;;;;;;;2.28;2.05;;;;;;;;;;4997478;28;20415;-81
2022/11/04 03:52:39;;;;;;;1.98;1.77;;;;;;;;;;5015368;28;20128;-84
2022/11/04 03:55:08;;;;;;;3.80;2.00;;;;;;;;;;5015699;28;20164;-83
2022/11/04 03:57:53;;;;;;;3.15;1.80;;;;;;;;;;5015966;28;20054;-84
2022/11/04 04:00:21;;;;;;;2.72;2.22;;;;;;;;;;4997678;28;20053;-83
2022/11/04 04:02:52;;;;;;;2.40;1.90;;;;;;;;;;5015678;28;20128;-84
2022/11/04 04:05:25;;;;;;;1.83;1.73;;;;;;;;;;4998567;28;20057;-84
2022/11/04 04:07:52;;;;;;;;;;;;;;;;;;5016084;28;20125;-84
2022/11/04 04:10:38;;;;;;;2.38;2.17;;;;;;;;;;5015565;28;19929;-83
2022/11/04 04:13:25;;;;;;;2.70;2.08;;;;;;;;;;4998382;28;20523;-84
2022/11/04 04:15:55;;;;;;;1.98;1.88;;;;;;;;;;5015037;28;20579;-82
2022/11/04 04:18:26;;;;;;;1.90;1.80;;;;;;;;;;4997819;28;20057;-84
2022/11/04 04:20:54;;;;;;;2.65;1.63;;;;;;;;;;5017663;28;20058;-82
2022/11/04 04:29:00;;;;;;;2.72;1.77;;;;;;;;;;5016738;28;20050;-84
2022/11/04 04:34:15;;;;;;;3.15;1.90;;;;;;;;;;5017064;28;20053;-84
2022/11/04 04:36:46;;;;;;;1.70;1.60;;;;;;;;;;5016340;28;20064;-84
2022/11/04 04:45:02;;;;;;;2.25;2.05;;;;;;;;;;5015662;28;20056;-83
2022/11/04 04:47:35;;;;;;;2.05;1.70;;;;;;;;;;4995211;28;20046;-83
2022/11/04 04:50:02;;;;;;;1.70;1.60;;;;;;;;;;4995520;28;20080;-84
2022/11/04 04:52:40;;;;;;;2.33;2.08;;;;;;;;;;4995442;28;20052;-82
2022/11/04 04:55:07;;;;;;;3.90;2.25;;;;;;;;;;4995247;28;20500;-83
2022/11/04 04:57:35;;;;;;;2.30;2.20;;;;;;;;;;4995342;28;20050;-83
2022/11/04 05:00:03;;;;;;;3.53;2.22;;;;;;;;;;4995456;28;20046;-82
2022/11/04 05:02:30;;;;;;;2.60;2.40;;;;;;;;;;4995937;28;20057;-83
2022/11/04 05:04:58;;;;;;;1.90;1.80;;;;;;;;;;5013546;28;20461;-83
2022/11/04 05:07:25;;;;;;;4.30;3.55;;;;;;;;;;5014368;28;20548;-83
2022/11/04 05:09:52;;;;;;;22.23;15.23;;;;;;;;;;4997523;28;20050;-83
2022/11/04 05:12:20;;;;;;;16.50;11.95;;;;;;;;;;4998100;28;20050;-83
2022/11/04 05:14:47;;;;;;;18.23;12.80;;;;;;;;;;5014774;28;20057;-84
2022/11/04 05:17:14;;;;;;;13.32;8.63;;;;;;;;;;5090159;23;20048;-86
2022/11/04 05:19:42;;;;;;;7.75;5.35;;;;;;;;;;5072967;28;20052;-86
2022/11/04 05:22:09;;;;;;;5.53;3.90;;;;;;;;;;5071615;28;20413;-86
2022/11/04 05:24:36;;;;;;;3.95;3.65;;;;;;;;;;5072549;28;20052;-86
2022/11/04 05:27:03;;;;;;;8.93;3.55;;;;;;;;;;5072256;28;20044;-86
2022/11/04 05:29:30;;;;;;;2.83;2.50;;;;;;;;;;5075972;28;20045;-86
2022/11/04 05:31:58;;;;;;;3.47;2.90;;;;;;;;;;5071701;28;20049;-85
2022/11/04 05:34:25;;;;;;;2.70;2.50;;;;;;;;;;5071396;28;20052;-86
2022/11/04 05:36:53;;;;;;;3.80;2.70;;;;;;;;;;5071611;28;20048;-86
2022/11/04 05:39:20;;;;;;;3.88;2.63;;;;;;;;;;5071147;28;20055;-85
2022/11/04 05:41:47;;;;;;;3.38;2.70;;;;;;;;;;5071491;28;20448;-86
2022/11/04 05:44:15;;;;;;;3.90;2.70;;;;;;;;;;5071197;28;20044;-86
2022/11/04 05:46:42;;;;;;;5.10;2.80;;;;;;;;;;5070919;28;20277;-86
2022/11/04 05:49:09;;;;;;;4.85;3.33;;;;;;;;;;5072305;28;20126;-85
2022/11/04 05:51:37;;;;;;;11.35;3.50;;;;;;;;;;5072839;28;20049;-85
2022/11/04 05:54:04;;;;;;;11.77;3.53;;;;;;;;;;5074472;28;20567;-86
2022/11/04 05:56:31;;;;;;;5.90;4.97;;;;;;;;;;5074634;28;20051;-86
2022/11/04 05:58:59;;;;;;;7.35;4.80;;;;;;;;;;5075492;28;20489;-85
2022/11/04 06:01:31;;;;;;;5.13;4.63;;;;;;;;;;5074633;28;20044;-86
2022/11/04 06:03:58;;;;;;;4.95;4.05;;;;;;;;;;5074626;28;20134;-86
2022/11/04 06:06:27;;;;;;;6.13;4.68;;;;;;;;;;5074516;28;20052;-85
2022/11/04 06:08:54;;;;;;;5.03;3.45;;;;;;;;;;5074449;28;20053;-86
2022/11/04 06:11:22;;;;;;;4.55;3.60;;;;;;;;;;5074409;28;20048;-85
2022/11/04 06:13:49;;;;;;;4.40;3.88;;;;;;;;;;5074548;28;20352;-85
2022/11/04 06:16:17;;;;;;;5.47;3.60;;;;;;;;;;5074114;28;20408;-85
2022/11/04 06:18:44;;;;;;;7.25;3.53;;;;;;;;;;5074157;28;20059;-85
2022/11/04 06:21:14;;;;;;;7.45;4.05;;;;;;;;;;5074191;28;20056;-86
2022/11/04 06:23:42;;;;;;;7.47;3.65;;;;;;;;;;5074167;28;20091;-86
2022/11/04 06:26:10;;;;;;;5.35;3.60;;;;;;;;;;5075150;28;20063;-85
2022/11/04 06:28:37;;;;;;;6.10;3.30;;;;;;;;;;5074893;28;20493;-85
2022/11/04 06:31:06;;;;;;;4.90;3.88;;;;;;;;;;5075142;28;20139;-85
2022/11/04 06:33:33;;;;;;;5.05;3.75;;;;;;;;;;5073869;28;20044;-86
2022/11/04 06:36:04;;;;;;;7.20;3.53;;;;;;;;;;5074001;28;20144;-86
2022/11/04 06:38:32;;;;;;;4.80;3.92;;;;;;;;;;5073947;28;20053;-86
2022/11/04 06:41:00;;;;;;;5.65;3.92;;;;;;;;;;5073865;28;20052;-86
2022/11/04 06:43:27;;;;;;;5.78;4.05;;;;;;;;;;5075021;28;20048;-86
2022/11/04 06:45:59;;;;;;;5.53;4.18;;;;;;;;;;5081389;28;20051;-86
2022/11/04 06:48:26;;;;;;;7.68;4.13;;;;;;;;;;5073685;28;20040;-86
2022/11/04 06:50:53;;;;;;;6.72;4.50;;;;;;;;;;5073809;28;20639;-85
2022/11/04 06:53:20;;;;;;;9.00;4.00;;;;;;;;;;5073720;28;20045;-86
2022/11/04 06:55:48;;;;;;;22.00;8.82;;;;;;;;;;5073894;28;20048;-86
2022/11/04 06:58:15;;;;;;;11.52;5.65;;;;;;;;;;5074650;28;20044;-86
2022/11/04 07:00:42;;;;;;;15.05;5.35;;;;;;;;;;5073397;28;20052;-86
2022/11/04 07:03:10;;;;;;;3.53;2.60;;;;;;;;;;5072264;28;20556;-86
2022/11/04 07:05:37;;;;;;;12.90;5.00;;;;;;;;;;5074553;28;20569;-86
2022/11/04 07:08:05;;;;;;;8.27;4.68;;;;;;;;;;5073562;28;20056;-86
2022/11/04 07:10:33;;;;;;;11.10;4.75;;;;;;;;;;5072929;28;20091;-86
2022/11/04 07:13:00;;;;;;;9.63;5.50;;;;;;;;;;5073435;28;20066;-86
2022/11/04 07:15:27;;;;;;;11.68;4.65;;;;;;;;;;5073066;28;20159;-86
2022/11/04 07:17:55;;;;;;;11.82;5.60;;;;;;;;;;5073248;28;20048;-86
2022/11/04 07:20:22;;;;;;;7.57;4.90;;;;;;;;;;5073976;28;20412;-85
2022/11/04 07:22:49;;;;;;;9.65;5.28;;;;;;;;;;5073005;28;20058;-86
2022/11/04 07:25:16;;;;;;;10.07;5.00;;;;;;;;;;5073086;28;20045;-86
2022/11/04 07:27:43;;;;;;;7.55;4.20;;;;;;;;;;5072946;28;20052;-85
2022/11/04 07:30:11;;;;;;;6.25;3.60;;;;;;;;;;5072618;28;20415;-86
2022/11/04 07:32:38;;;;;;;6.47;3.83;;;;;;;;;;5073020;28;20052;-86
2022/11/04 07:35:06;;;;;;;8.88;3.90;;;;;;;;;;5073054;28;20412;-86
2022/11/04 07:37:33;;;;;;;8.23;4.13;;;;;;;;;;5073035;28;20392;-85
2022/11/04 07:40:00;;;;;;;5.82;3.88;;;;;;;;;;5072540;28;20053;-85
2022/11/04 07:42:28;;;;;;;4.18;3.78;;;;;;;;;;5072321;28;20068;-86
2022/11/04 07:44:55;;;;;;;3.95;3.53;;;;;;;;;;5072779;28;20049;-86
2022/11/04 07:47:22;;;;;;;6.00;3.33;;;;;;;;;;5072724;28;20053;-86
2022/11/04 07:49:49;;;;;;;7.28;3.28;;;;;;;;;;5072614;28;20048;-86
2022/11/04 07:52:16;;;;;;;6.60;4.07;;;;;;;;;;5072775;28;20048;-86
2022/11/04 07:54:44;;;;;;;7.03;5.93;;;;;;;;;;5073642;28;20514;-86
2022/11/04 07:57:11;;;;;;;9.38;4.88;;;;;;;;;;5072794;28;20146;-86
2022/11/04 07:59:38;;;;;;;6.63;5.40;;;;;;;;;;5073085;28;20044;-86
2022/11/04 08:02:05;;;;;;;11.75;5.68;;;;;;;;;;5080538;28;20049;-85
2022/11/04 08:04:33;;;;;;;14.10;4.28;;;;;;;;;;5073611;28;20056;-86
2022/11/04 08:07:00;;;;;;;8.55;4.05;;;;;;;;;;5072460;28;20053;-86
2022/11/04 08:09:28;;;;;;;14.88;4.50;;;;;;;;;;5072185;28;20408;-85
2022/11/04 08:11:55;;;;;;;8.15;4.53;;;;;;;;;;5072145;28;20048;-85
2022/11/04 08:14:22;;;;;;;11.10;4.80;;;;;;;;;;5072345;28;20055;-86
2022/11/04 08:16:50;;;;;;;9.95;4.00;;;;;;;;;;5072928;28;20078;-86
2022/11/04 08:19:17;;;;;;;13.88;4.47;;;;;;;;;;5063425;28;20064;-86
2022/11/04 08:21:44;;;;;;;8.82;4.38;;;;;;;;;;5060922;28;20051;-86
2022/11/04 08:24:11;;;;;;;12.57;4.60;;;;;;;;;;5066409;28;20539;-86
2022/11/04 08:26:39;;;;;;;17.40;5.93;;;;;;;;;;5072155;28;20052;-86
2022/11/04 08:29:07;;;;;;;9.40;4.93;;;;;;;;;;5071901;28;20079;-86
2022/11/04 08:31:34;;;;;;;12.10;5.20;;;;;;;;;;5072261;28;20511;-86
2022/11/04 08:34:01;;;;;;;5.13;3.40;;;;;;;;;;5072098;28;20053;-86
2022/11/04 08:36:30;;;;;;;5.78;3.88;;;;;;;;;;5071855;28;20059;-87
2022/11/04 08:38:58;;;;;;;5.75;3.28;;;;;;;;;;5072135;28;20049;-86
2022/11/04 08:41:28;;;;;;;4.68;2.88;;;;;;;;;;5071908;28;20055;-86
2022/11/04 08:43:58;;;;;;;2.90;2.67;;;;;;;;;;5071926;28;20489;-86
2022/11/04 08:46:31;;;;;;;3.40;3.05;;;;;;;;;;5071688;28;20045;-86
2022/11/04 08:48:58;;;;;;;3.27;2.97;;;;;;;;;;5071863;28;20062;-86
2022/11/04 08:51:26;;;;;;;4.55;2.53;;;;;;;;;;5073426;28;20060;-86
2022/11/04 08:53:54;;;;;;;5.47;2.35;;;;;;;;;;5071944;28;20056;-86
2022/11/04 08:56:27;;;;;;;10.05;3.22;;;;;;;;;;5071816;28;20053;-86
2022/11/04 08:58:55;;;;;;;9.77;2.47;;;;;;;;;;5071522;28;20049;-85
2022/11/04 09:01:22;;;;;;;4.05;2.80;;;;;;;;;;5071412;28;20072;-86
2022/11/04 09:03:50;;;;;;;5.47;4.38;;;;;;;;;;5071798;28;20049;-86
2022/11/04 09:06:19;;;;;;;5.22;3.72;;;;;;;;;;5071746;28;20044;-86
2022/11/04 09:08:46;;;;;;;4.90;2.08;;;;;;;;;;5071827;28;20200;-86
2022/11/04 09:11:15;;;;;;;1.63;1.10;;;;;;;;;;5071854;28;20048;-86
2022/11/04 09:13:43;;;;;;;1.92;1.20;;;;;;;;;;5071747;28;20060;-85
2022/11/04 09:16:11;;;;;;;1.80;1.00;;;;;;;;;;5072228;28;20048;-86
2022/11/04 09:18:38;;;;;;;2.38;0.90;;;;;;;;;;5081978;28;20071;-86
2022/11/04 09:21:07;;;;;;;1.98;1.20;;;;;;;;;;5071498;28;20052;-86
2022/11/04 09:23:34;;;;;;;3.92;1.35;;;;;;;;;;5071859;28;20052;-86
2022/11/04 09:26:09;;;;;;;4.78;3.05;;;;;;;;;;5071995;28;20045;-86
2022/11/04 09:28:36;;;;;;;10.02;7.05;;;;;;;;;;5076551;28;20052;-86
2022/11/04 09:31:07;;;;;;;6.80;6.07;;;;;;;;;;5075164;28;20060;-86
2022/11/04 09:33:35;;;;;;;5.60;5.13;;;;;;;;;;5074955;28;20500;-85
2022/11/04 09:36:02;;;;;;;3.92;3.63;;;;;;;;;;5075236;28;20055;-86
2022/11/04 09:38:29;;;;;;;4.32;3.13;;;;;;;;;;5075207;28;20048;-86
2022/11/04 09:40:58;;;;;;;2.60;2.40;;;;;;;;;;5075076;28;20124;-85
2022/11/04 09:43:46;;;;;;;2.67;2.35;;;;;;;;;;5074848;28;20603;-85
2022/11/04 09:46:13;;;;;;;1.92;1.83;;;;;;;;;;5074941;28;20127;-86
2022/11/04 09:48:48;;;;;;;1.45;1.35;;;;;;;;;;5075215;28;20045;-86
2022/11/04 09:51:17;;;;;;;3.10;1.60;;;;;;;;;;5075031;28;20493;-86
2022/11/04 09:54:09;;;;;;;1.58;1.20;;;;;;;;;;5075417;28;20052;-86
2022/11/04 09:56:38;;;;;;;1.05;0.70;;;;;;;;;;5075975;28;20123;-86
2022/11/04 09:59:05;;;;;;;8.93;1.10;;;;;;;;;;5074475;28;20048;-86
2022/11/04 10:01:39;;;;;;;1.73;0.85;;;;;;;;;;5075565;28;20044;-85
2022/11/04 10:04:13;;;;;;;1.50;0.80;;;;;;;;;;5074705;28;20048;-85
2022/11/04 10:06:58;;;;;;;1.20;0.80;;;;;;;;;;5074735;28;20055;-86
2022/11/04 10:09:44;;;;;;;1.17;1.10;;;;;;;;;;5074419;28;20058;-85
2022/11/04 10:12:11;;;;;;;2.05;1.50;;;;;;;;;;5074907;28;20055;-86
2022/11/04 10:14:53;;;;;;;1.60;1.20;;;;;;;;;;5074585;28;20139;-86
2022/11/04 10:17:33;;;;;;;2.35;1.20;;;;;;;;;;5074261;28;20063;-86
2022/11/04 10:20:01;;;;;;;0.90;0.90;;;;;;;;;;5074266;28;20056;-86
2022/11/04 10:22:32;;;;;;;4.18;1.40;;;;;;;;;;5076276;28;20040;-86
2022/11/04 10:25:05;;;;;;;1.42;1.33;;;;;;;;;;5074610;28;20048;-86
2022/11/04 10:27:34;;;;;;;1.60;1.30;;;;;;;;;;5075719;28;20051;-86
2022/11/04 10:30:04;;;;;;;1.38;1.27;;;;;;;;;;5073788;28;20464;-85
2022/11/04 10:32:34;;;;;;;2.75;0.85;;;;;;;;;;5076013;28;20047;-86
2022/11/04 10:35:05;;;;;;;2.35;0.80;;;;;;;;;;5079154;28;20076;-86
2022/11/04 10:37:34;;;;;;;2.20;1.15;;;;;;;;;;5072971;28;20059;-86
2022/11/04 10:40:21;;;;;;;3.58;2.35;;;;;;;;;;5074302;28;20048;-86
2022/11/04 10:42:50;;;;;;;5.38;3.17;;;;;;;;;;5074195;28;20044;-86
2022/11/04 10:45:19;;;;;;;2.75;2.53;;;;;;;;;;5073767;28;20054;-86
2022/11/04 10:47:58;;;;;;;3.05;2.30;;;;;;;;;;5073953;28;20049;-86
2022/11/04 10:50:36;;;;;;;2.30;2.10;;;;;;;;;;5073553;28;20052;-86
2022/11/04 10:53:12;;;;;;;4.85;2.13;;;;;;;;;;5073962;28;20131;-86
2022/11/04 10:55:46;;;;;;;5.72;2.55;;;;;;;;;;5073698;28;20056;-86
2022/11/04 10:58:13;;;;;;;;;;;;;;;;;;5074033;28;20040;-86
2022/11/04 11:00:41;;;;;;;5.50;3.40;;;;;;;;;;5074027;28;19921;-86
2022/11/04 11:03:27;;;;;;;4.18;3.78;;;;;;;;;;5073752;28;20087;-86
2022/11/04 11:06:09;;;;;;;7.70;5.90;;;;;;;;;;5073863;28;20103;-86
2022/11/04 11:08:36;;;;;;;13.85;8.70;;;;;;;;;;5073883;28;20491;-86
2022/11/04 11:11:07;;;;;;;15.75;9.55;;;;;;;;;;5073505;28;20056;-86
2022/11/04 11:13:37;;;;;;;14.93;10.10;;;;;;;;;;5073634;28;20099;-86
2022/11/04 11:16:18;;;;;;;14.73;8.77;;;;;;;;;;5072295;28;20067;-86
2022/11/04 11:18:45;;;;;;;13.15;8.00;;;;;;;;;;5073313;28;20052;-86
2022/11/04 11:21:14;;;;;;;16.55;8.18;;;;;;;;;;5073271;28;20064;-86
2022/11/04 11:23:45;;;;;;;13.02;8.18;;;;;;;;;;5073285;28;20044;-86
2022/11/04 11:26:29;;;;;;;11.68;5.82;;;;;;;;;;5073484;28;20054;-86
2022/11/04 11:29:01;;;;;;;4.97;3.15;;;;;;;;;;5073368;28;20052;-87
2022/11/04 11:31:35;;;;;;;4.18;1.15;;;;;;;;;;5072860;28;20079;-86
2022/11/04 11:34:12;;;;;;;3.10;1.65;;;;;;;;;;5072929;28;20053;-85
2022/11/04 11:36:43;;;;;;;3.58;1.85;;;;;;;;;;5073076;28;20044;-86
2022/11/04 11:39:11;;;;;;;2.90;1.10;;;;;;;;;;5073934;28;20052;-86
2022/11/04 11:41:52;;;;;;;3.10;1.10;;;;;;;;;;5073977;28;20052;-86
2022/11/04 11:44:24;;;;;;;2.72;0.95;;;;;;;;;;5072555;28;20451;-86
2022/11/04 11:46:56;;;;;;;6.53;1.20;;;;;;;;;;5073096;28;20052;-86
2022/11/04 11:49:27;;;;;;;4.95;0.88;;;;;;;;;;5075168;28;20045;-86
2022/11/04 11:51:54;;;;;;;4.90;0.73;;;;;;;;;;5073345;28;20075;-86
2022/11/04 11:54:22;;;;;;;3.35;0.73;;;;;;;;;;5072644;28;20416;-85
2022/11/04 11:56:53;;;;;;;1.85;0.45;;;;;;;;;;5072746;28;20056;-85
2022/11/04 11:59:44;;;;;;;2.72;0.57;;;;;;;;;;5072614;28;20413;-86
2022/11/04 12:02:34;;;;;;;4.47;0.82;;;;;;;;;;5072430;28;20067;-86
2022/11/04 12:05:02;;;;;;;2.70;0.85;;;;;;;;;;5072544;28;20106;-86
2022/11/04 12:07:49;;;;;;;2.70;0.70;;;;;;;;;;5072481;28;20132;-86
2022/11/04 12:10:50;;;;;;;3.40;0.90;;;;;;;;;;5072220;28;20048;-86
2022/11/04 12:13:29;;;;;;;4.72;0.93;;;;;;;;;;5072513;28;20488;-87
2022/11/04 12:16:13;;;;;;;2.28;0.70;;;;;;;;;;5072399;28;20139;-86
2022/11/04 12:18:52;;;;;;;2.40;0.80;;;;;;;;;;5072457;28;20404;-86
2022/11/04 12:21:30;;;;;;;6.63;0.93;;;;;;;;;;5073329;28;20408;-87
2022/11/04 12:24:15;;;;;;;2.72;0.73;;;;;;;;;;5072349;28;20048;-86
2022/11/04 12:27:12;;;;;;;3.38;0.73;;;;;;;;;;5072533;28;20048;-87
2022/11/04 12:29:51;;;;;;;4.45;0.80;;;;;;;;;;5051976;28;20048;-86
2022/11/04 12:32:18;;;;;;;3.58;0.88;;;;;;;;;;5072471;28;20058;-86
2022/11/04 12:34:46;;;;;;;2.38;0.82;;;;;;;;;;5072161;28;20487;-86
2022/11/04 12:37:42;;;;;;;4.00;0.82;;;;;;;;;;5072400;28;20056;-87
2022/11/04 12:40:20;;;;;;;7.82;0.85;;;;;;;;;;5051788;28;20063;-86
2022/11/04 12:42:51;;;;;;;2.35;0.85;;;;;;;;;;5072098;28;20060;-86
2022/11/04 12:45:23;;;;;;;2.55;0.98;;;;;;;;;;5073058;28;20044;-86
2022/11/04 12:47:55;;;;;;;3.05;0.93;;;;;;;;;;5071877;28;20583;-86
2022/11/04 12:50:22;;;;;;;4.55;0.90;;;;;;;;;;5071932;28;20071;-86
2022/11/04 12:53:08;;;;;;;2.70;0.80;;;;;;;;;;5071677;28;20045;-85
2022/11/04 12:55:54;;;;;;;3.67;0.80;;;;;;;;;;5073283;28;20078;-86
2022/11/04 12:58:40;;;;;;;2.05;0.90;;;;;;;;;;5072078;28;20139;-86
2022/11/04 13:01:14;;;;;;;2.92;0.70;;;;;;;;;;5073057;28;20045;-86
2022/11/04 13:04:00;;;;;;;5.32;1.23;;;;;;;;;;5076420;28;20080;-87
2022/11/04 13:06:32;;;;;;;2.85;0.80;;;;;;;;;;5078990;28;20052;-86
2022/11/04 13:09:02;;;;;;;2.72;0.90;;;;;;;;;;5076049;28;20071;-86
2022/11/04 13:11:32;;;;;;;5.38;1.00;;;;;;;;;;5076547;28;20463;-86
2022/11/04 13:14:03;;;;;;;3.42;0.70;;;;;;;;;;5075788;28;20052;-86
2022/11/04 13:16:33;;;;;;;3.15;1.02;;;;;;;;;;5076662;28;20415;-86
2022/11/04 13:19:01;;;;;;;6.50;2.30;;;;;;;;;;5075972;28;20047;-86
2022/11/04 13:21:32;;;;;;;5.13;2.85;;;;;;;;;;5075552;28;20052;-86
2022/11/04 13:24:04;;;;;;;2.90;1.35;;;;;;;;;;5075646;28;20142;-86
2022/11/04 13:26:32;;;;;;;5.43;1.40;;;;;;;;;;5075608;28;20051;-86
2022/11/04 13:29:04;;;;;;;6.35;1.20;;;;;;;;;;5075466;28;20060;-86
2022/11/04 13:31:47;;;;;;;8.95;1.75;;;;;;;;;;5075524;28;20621;-87
2022/11/04 13:34:15;;;;;;;11.50;1.55;;;;;;;;;;5075287;28;20052;-86
2022/11/04 13:36:52;;;;;;;5.20;1.00;;;;;;;;;;5075761;28;20053;-86
2022/11/04 13:39:24;;;;;;;2.20;0.80;;;;;;;;;;5075416;28;20045;-87
2022/11/04 13:42:03;;;;;;;2.65;0.80;;;;;;;;;;5075702;28;20052;-86
2022/11/04 13:44:31;;;;;;;5.28;0.80;;;;;;;;;;5075113;28;20044;-86
2022/11/04 13:47:01;;;;;;;5.53;0.90;;;;;;;;;;5075458;28;20053;-86
2022/11/04 13:49:32;;;;;;;7.35;1.00;;;;;;;;;;5075138;28;20053;-86
2022/11/04 13:52:05;;;;;;;3.78;1.50;;;;;;;;;;5075003;28;20048;-86
2022/11/04 13:54:33;;;;;;;7.82;1.30;;;;;;;;;;5075135;28;20044;-86
2022/11/04 13:57:23;;;;;;;7.93;0.90;;;;;;;;;;5076123;28;20064;-86
2022/11/04 14:00:05;;;;;;;2.55;0.82;;;;;;;;;;5062883;28;20502;-85
2022/11/04 14:02:42;;;;;;;4.05;1.27;;;;;;;;;;5075056;28;20049;-86
2022/11/04 14:05:35;;;;;;;6.85;1.30;;;;;;;;;;5074806;28;20052;-86
2022/11/04 14:08:03;;;;;;;6.37;1.30;;;;;;;;;;5075010;28;20063;-86
2022/11/04 14:10:38;;;;;;;3.10;1.23;;;;;;;;;;5074658;28;20492;-86
2022/11/04 14:13:24;;;;;;;5.35;2.08;;;;;;;;;;5074784;28;20056;-87
2022/11/04 14:16:05;;;;;;;3.10;1.85;;;;;;;;;;5074834;28;20057;-86
2022/11/04 14:18:33;;;;;;;5.68;2.05;;;;;;;;;;5074717;28;20489;-86
2022/11/04 14:21:03;;;;;;;5.45;2.55;;;;;;;;;;5077312;28;20139;-86
2022/11/04 14:23:30;;;;;;;4.50;1.90;;;;;;;;;;5077083;28;20041;-86
2022/11/04 14:26:00;;;;;;;2.38;1.63;;;;;;;;;;5075033;28;20048;-86
2022/11/04 14:28:29;;;;;;;3.67;1.83;;;;;;;;;;5074797;28;20049;-87
2022/11/04 14:31:00;;;;;;;3.40;2.70;;;;;;;;;;5075256;28;20067;-85
2022/11/04 14:33:31;;;;;;;11.90;2.55;;;;;;;;;;5074544;28;20049;-86
2022/11/04 14:36:14;;;;;;;9.25;2.10;;;;;;;;;;5074467;28;20067;-86
2022/11/04 14:38:42;;;;;;;17.50;2.90;;;;;;;;;;5074524;28;20048;-86
2022/11/04 14:41:29;;;;;;;22.30;3.03;;;;;;;;;;5074185;28;20064;-87
2022/11/04 14:44:02;;;;;;;7.22;1.70;;;;;;;;;;5074303;28;20048;-87
2022/11/04 14:46:31;;;;;;;8.03;1.37;;;;;;;;;;5074353;28;20052;-86
2022/11/04 14:49:01;;;;;;;7.03;1.30;;;;;;;;;;5073954;28;20044;-86
2022/11/04 14:51:29;;;;;;;3.38;1.30;;;;;;;;;;5073735;28;20110;-86
2022/11/04 14:54:04;;;;;;;8.63;2.00;;;;;;;;;;5074031;28;20048;-87
2022/11/04 14:56:32;;;;;;;5.95;1.45;;;;;;;;;;5074725;28;20413;-87
2022/11/04 14:59:02;;;;;;;8.93;1.70;;;;;;;;;;5073796;28;20066;-86
2022/11/04 15:01:30;;;;;;;11.63;2.45;;;;;;;;;;5073843;28;20056;-86
2022/11/04 15:04:13;;;;;;;8.18;2.30;;;;;;;;;;5073773;28;20078;-87
2022/11/04 15:06:41;;;;;;;12.80;3.25;;;;;;;;;;5074905;28;20535;-87
2022/11/04 15:09:26;;;;;;;11.70;4.28;;;;;;;;;;5073871;28;20076;-86
2022/11/04 15:14:59;;;;;;;5.60;3.03;;;;;;;;;;5074754;28;20059;-87
2022/11/04 15:17:28;;;;;;;5.28;2.92;;;;;;;;;;5073321;28;20057;-86
2022/11/04 15:19:58;;;;;;;5.50;3.00;;;;;;;;;;5073448;28;20048;-86
2022/11/04 15:22:26;;;;;;;3.45;2.20;;;;;;;;;;5073548;28;20481;-86
2022/11/04 15:24:55;;;;;;;3.47;1.92;;;;;;;;;;5072437;28;20511;-86
2022/11/04 15:27:28;;;;;;;5.97;3.00;;;;;;;;;;5073408;28;20082;-87
2022/11/04 15:29:56;;;;;;;8.73;4.20;;;;;;;;;;5073365;28;20044;-86
2022/11/04 15:32:23;;;;;;;11.05;2.70;;;;;;;;;;5073153;28;20056;-86
2022/11/04 15:34:52;;;;;;;7.72;3.55;;;;;;;;;;5073313;28;20045;-86